Chisholm Hibbing Airport Hibbing US
ICAO: KHIB
IATA: HIB
Category: Large
Scheduled Services: Yes

Elevation: 1354 ft
TransAlt. 18000 ft.

Airport Communications:
DULUTH APP/DEP:125.45
ASOS:126.425
DULUTH CLNC DEL:127.4
PRINCETON RDO:122.6
CTAF/UNICOM:123

KHIB Zoom In..

Runways:

(A) RW 04 length 3075 ft width 75 ft
---- / hdg 47

(B) RW 13 length 6758 ft width 150 ft
ILS 110.50 / hdg 130

(C) RW 22 length 3075 ft width 75 ft
---- / hdg 227

(D) RW 31 length 6758 ft width 150 ft
ILS 109.50 / hdg 310

Location; KHIB
Day. 21 / Time. 14.53 Zulu
* Altimeter: 30.13
* Temperature: 17° c. 62.6°f.
* Wind from: 000° Speed 00 kn.
Dewpoint: 01° c.
Visibility: 10 Statute Miles.
Clouds: Clear (automated report).

KHIB 211453Z AUTO 00000KT 10SM CLR 17/01 A3013 RMK AO2 SLP208 T01670011 58012


Wind - Calm.

 
 
jpsmedia.com for Web Design SOUNDCLOUD worldairports.se 2018   terms of use